Time;durP1;ratioP1;P1;durP2;ratioP2;P2;SDS_P1;SDS_P2;PMS_P1;PMS_P2;Temp;Humidity;BMP_temperature;BMP_pressure;BME280_temperature;BME280_humidity;BME280_pressure;Samples;Min_cycle;Max_cycle;Signal;HPM_P1;HPM_P2
2021/04/25 00:01:20;;;;;;;7.17;5.17;;;7.30;94.40;;;;;;4985807;28;20432;-76
2021/04/25 00:03:49;;;;;;;9.07;5.95;;;7.20;94.60;;;;;;4979354;28;20454;-76
2021/04/25 00:06:16;;;;;;;6.20;5.60;;;7.20;94.80;;;;;;4962743;28;20711;-76
2021/04/25 00:08:44;;;;;;;6.70;4.80;;;7.30;95.00;;;;;;4965017;28;20843;-76
2021/04/25 00:11:10;;;;;;;9.37;5.13;;;7.30;95.20;;;;;;4982314;28;20435;-76
2021/04/25 00:13:36;;;;;;;9.70;5.20;;;7.20;96.00;;;;;;5003166;28;20469;-76
2021/04/25 00:16:03;;;;;;;11.07;6.23;;;7.10;96.30;;;;;;4968054;28;20602;-76
2021/04/25 00:18:29;;;;;;;8.10;5.50;;;7.00;96.70;;;;;;4992624;28;20419;-76
2021/04/25 00:20:55;;;;;;;9.97;5.47;;;7.00;96.80;;;;;;4992218;28;20474;-75
2021/04/25 00:23:21;;;;;;;8.10;5.67;;;7.10;96.70;;;;;;4980480;28;20442;-76
2021/04/25 00:25:56;;;;;;;7.90;5.40;;;7.00;96.80;;;;;;4988674;28;21119;-76
2021/04/25 00:28:25;;;;;;;7.73;4.90;;;7.10;96.50;;;;;;4981564;28;20481;-76
2021/04/25 00:30:51;;;;;;;8.77;4.70;;;7.10;96.50;;;;;;4959216;28;20447;-76
2021/04/25 00:33:17;;;;;;;13.25;5.40;;;7.00;96.70;;;;;;4989113;28;20431;-75
2021/04/25 00:35:43;;;;;;;5.70;4.77;;;6.90;96.90;;;;;;4989592;28;20917;-74
2021/04/25 00:38:09;;;;;;;12.23;5.17;;;6.90;97.00;;;;;;4989903;28;20482;-76
2021/04/25 00:40:38;;;;;;;10.43;6.07;;;6.90;97.10;;;;;;4957816;28;20464;-76
2021/04/25 00:43:06;;;;;;;7.33;5.27;;;6.80;97.20;;;;;;4989453;28;20425;-74
2021/04/25 00:45:32;;;;;;;9.13;5.07;;;6.80;97.60;;;;;;4973967;28;20519;-76
2021/04/25 00:48:04;;;;;;;10.50;5.70;;;6.80;97.80;;;;;;4988547;28;20427;-76
2021/04/25 00:50:30;;;;;;;10.47;5.20;;;6.80;98.10;;;;;;4962720;28;20433;-76
2021/04/25 00:53:01;;;;;;;6.33;5.00;;;6.80;98.10;;;;;;4994441;28;20554;-76
2021/04/25 00:55:29;;;;;;;11.60;5.60;;;6.70;98.60;;;;;;4976096;28;20501;-74
2021/04/25 00:58:00;;;;;;;7.50;4.80;;;6.70;98.60;;;;;;4989741;28;21092;-76
2021/04/25 01:00:27;;;;;;;7.43;5.50;;;6.70;98.60;;;;;;4973800;28;20459;-76
2021/04/25 01:02:53;;;;;;;10.17;4.60;;;6.70;98.90;;;;;;4975055;28;20483;-75
2021/04/25 01:05:21;;;;;;;7.07;6.20;;;6.60;99.20;;;;;;4991273;28;20449;-75
2021/04/25 01:07:47;;;;;;;6.47;4.83;;;6.60;99.60;;;;;;4965864;28;20423;-75
2021/04/25 01:10:14;;;;;;;5.30;4.50;;;6.50;99.70;;;;;;4983518;28;20438;-75
2021/04/25 01:12:41;;;;;;;11.30;6.03;;;6.50;99.90;;;;;;4978614;28;20465;-76
2021/04/25 01:15:09;;;;;;;11.65;5.65;;;6.40;99.90;;;;;;4997881;28;20454;-76
2021/04/25 01:17:39;;;;;;;8.33;5.80;;;6.40;99.90;;;;;;4957253;28;20181;-76
2021/04/25 01:20:07;;;;;;;10.60;5.37;;;6.40;99.90;;;;;;4980875;28;20503;-76
2021/04/25 01:22:35;;;;;;;10.88;6.57;;;6.30;99.90;;;;;;4977083;28;20430;-76
2021/04/25 01:25:07;;;;;;;8.10;5.47;;;6.30;99.90;;;;;;4971995;28;20232;-76
2021/04/25 01:27:33;;;;;;;10.47;7.30;;;6.20;99.90;;;;;;4996544;28;20445;-75
2021/04/25 01:29:59;;;;;;;7.88;5.28;;;6.20;99.90;;;;;;4948110;28;20447;-74
2021/04/25 01:32:25;;;;;;;9.10;6.00;;;6.20;99.90;;;;;;4989302;28;20193;-76
2021/04/25 01:34:51;;;;;;;10.60;6.82;;;6.10;99.90;;;;;;4978062;28;20966;-76
2021/04/25 01:37:17;;;;;;;8.10;5.50;;;6.10;99.90;;;;;;4986371;28;20195;-76
2021/04/25 01:39:43;;;;;;;11.15;6.15;;;6.00;99.90;;;;;;4973667;28;21034;-76
2021/04/25 01:42:09;;;;;;;12.80;5.90;;;6.00;99.90;;;;;;4989834;28;20194;-76
2021/04/25 01:44:35;;;;;;;8.60;4.85;;;6.00;99.90;;;;;;4948937;28;20459;-76
2021/04/25 01:47:01;;;;;;;9.68;5.75;;;5.90;99.90;;;;;;4988465;28;20197;-76
2021/04/25 01:49:27;;;;;;;12.45;6.40;;;5.90;99.90;;;;;;4977296;28;20203;-76
2021/04/25 01:51:53;;;;;;;12.30;6.63;;;5.90;99.90;;;;;;4986718;28;20194;-76
2021/04/25 01:54:22;;;;;;;13.60;5.83;;;5.80;99.90;;;;;;4971120;28;20470;-75
2021/04/25 01:56:48;;;;;;;7.80;5.80;;;5.80;99.90;;;;;;4970166;28;20454;-75
2021/04/25 01:59:14;;;;;;;8.40;5.82;;;5.80;99.90;;;;;;4997052;28;20465;-76
2021/04/25 02:01:43;;;;;;;11.27;6.28;;;5.80;99.90;;;;;;4979883;28;20649;-76
2021/04/25 02:04:09;;;;;;;8.93;5.72;;;5.80;99.90;;;;;;4976275;28;20336;-76
2021/04/25 02:06:38;;;;;;;12.15;6.10;;;5.70;99.90;;;;;;4985400;28;20188;-75
2021/04/25 02:09:05;;;;;;;8.88;6.10;;;5.70;99.90;;;;;;4972811;28;20188;-75
2021/04/25 02:11:31;;;;;;;10.18;6.05;;;5.80;99.90;;;;;;4981785;28;20187;-75
2021/04/25 02:13:57;;;;;;;9.60;6.33;;;5.70;99.90;;;;;;4975459;28;20306;-76
2021/04/25 02:16:26;;;;;;;7.80;6.00;;;5.60;99.90;;;;;;4977728;28;20437;-74
2021/04/25 02:18:51;;;;;;;9.32;5.13;;;5.60;99.90;;;;;;4979603;28;21022;-76
2021/04/25 02:21:17;;;;;;;12.43;6.63;;;5.50;99.90;;;;;;4960743;28;20180;-75
2021/04/25 02:23:45;;;;;;;10.13;6.18;;;5.50;99.90;;;;;;4959423;28;20482;-76
2021/04/25 02:26:11;;;;;;;10.27;6.20;;;5.50;99.90;;;;;;4995209;28;20774;-76
2021/04/25 02:28:38;;;;;;;12.52;7.18;;;5.40;99.90;;;;;;4982416;28;20183;-76
2021/04/25 02:31:04;;;;;;;10.57;6.00;;;5.40;99.90;;;;;;4999286;28;20277;-75
2021/04/25 02:33:29;;;;;;;10.23;6.27;;;5.30;99.90;;;;;;5001499;28;20309;-76
2021/04/25 02:35:58;;;;;;;7.05;5.60;;;5.30;99.90;;;;;;5000627;28;20504;-76
2021/04/25 02:38:26;;;;;;;12.93;6.07;;;5.20;99.90;;;;;;4984966;28;20274;-75
2021/04/25 02:40:52;;;;;;;10.38;6.97;;;5.20;99.90;;;;;;4975276;28;20207;-76
2021/04/25 02:43:18;;;;;;;14.97;6.60;;;5.20;99.90;;;;;;4997965;28;20198;-75
2021/04/25 02:45:44;;;;;;;11.63;6.25;;;5.10;99.90;;;;;;5001181;28;20421;-75
2021/04/25 02:48:10;;;;;;;10.87;5.93;;;5.10;99.90;;;;;;4991543;28;20241;-75
2021/04/25 02:50:41;;;;;;;14.50;6.63;;;5.00;99.90;;;;;;4979414;28;20438;-76
2021/04/25 02:53:08;;;;;;;8.88;6.25;;;5.00;99.90;;;;;;4992536;28;20657;-76
2021/04/25 02:55:35;;;;;;;12.25;6.07;;;5.00;99.90;;;;;;4983685;28;20211;-76
2021/04/25 02:58:01;;;;;;;10.20;6.22;;;4.90;99.90;;;;;;4991544;28;20328;-76
2021/04/25 03:00:29;;;;;;;9.40;6.20;;;4.90;99.90;;;;;;4976838;28;20253;-76
2021/04/25 03:02:56;;;;;;;16.92;7.10;;;4.90;99.90;;;;;;4983240;28;20252;-76
2021/04/25 03:05:26;;;;;;;11.75;6.07;;;4.90;99.90;;;;;;4985009;28;20206;-76
2021/04/25 03:07:52;;;;;;;12.68;6.00;;;4.80;99.90;;;;;;4980171;28;20190;-75
2021/04/25 03:10:19;;;;;;;10.40;6.72;;;4.90;99.90;;;;;;4985824;28;20668;-75
2021/04/25 03:12:46;;;;;;;8.88;6.00;;;4.90;99.90;;;;;;4999098;28;20197;-76
2021/04/25 03:15:13;;;;;;;10.98;6.78;;;4.80;99.90;;;;;;4978806;28;20226;-76
2021/04/25 03:17:40;;;;;;;11.18;6.65;;;4.80;99.90;;;;;;4993463;28;20217;-75
2021/04/25 03:20:10;;;;;;;11.20;6.35;;;4.80;99.90;;;;;;4987865;28;20215;-75
2021/04/25 03:22:37;;;;;;;11.45;6.50;;;4.90;99.90;;;;;;4958676;28;20180;-75
2021/04/25 03:25:05;;;;;;;8.88;5.47;;;4.90;99.90;;;;;;4992461;28;20223;-76
2021/04/25 03:27:31;;;;;;;12.90;6.90;;;4.90;99.90;;;;;;4989764;28;20242;-75
2021/04/25 03:29:59;;;;;;;12.40;6.40;;;4.90;99.90;;;;;;4991073;28;20187;-76
2021/04/25 03:32:25;;;;;;;13.38;7.18;;;4.90;99.90;;;;;;4982737;28;20431;-75
2021/04/25 03:34:52;;;;;;;11.90;5.87;;;4.90;99.90;;;;;;4975747;28;20269;-75
2021/04/25 03:37:18;;;;;;;10.07;7.15;;;4.90;99.90;;;;;;4974576;28;20984;-75
2021/04/25 03:39:44;;;;;;;12.30;6.57;;;5.00;99.90;;;;;;4990613;28;20277;-76
2021/04/25 03:42:10;;;;;;;10.65;6.82;;;5.00;99.90;;;;;;4958516;28;20437;-76
2021/04/25 03:44:36;;;;;;;15.70;7.23;;;5.00;99.90;;;;;;4991837;28;20661;-76
2021/04/25 03:47:02;;;;;;;14.05;7.03;;;5.00;99.90;;;;;;4975601;28;20477;-76
2021/04/25 03:49:28;;;;;;;11.35;6.80;;;5.10;99.90;;;;;;4999249;28;20576;-76
2021/04/25 03:51:56;;;;;;;11.45;6.65;;;5.00;99.90;;;;;;4992399;28;20552;-76
2021/04/25 03:54:23;;;;;;;8.68;6.30;;;5.00;99.90;;;;;;4980921;28;20218;-76
2021/04/25 03:56:49;;;;;;;9.00;6.55;;;5.00;99.90;;;;;;4983807;28;20191;-76
2021/04/25 03:59:15;;;;;;;14.60;6.70;;;5.00;99.90;;;;;;4976038;28;20194;-76
2021/04/25 04:01:43;;;;;;;11.93;7.00;;;5.00;99.90;;;;;;4974799;28;20219;-74
2021/04/25 04:04:09;;;;;;;14.13;6.20;;;5.00;99.90;;;;;;4978675;28;20925;-75
2021/04/25 04:06:35;;;;;;;15.27;7.27;;;5.00;99.90;;;;;;4990846;28;20197;-75
2021/04/25 04:09:02;;;;;;;11.32;6.43;;;5.00;99.90;;;;;;4962527;28;20426;-76
2021/04/25 04:11:28;;;;;;;13.50;7.07;;;5.00;99.90;;;;;;4991408;28;20207;-75
2021/04/25 04:13:54;;;;;;;10.98;7.47;;;5.00;99.90;;;;;;4999779;28;20202;-75
2021/04/25 04:16:20;;;;;;;9.20;6.40;;;5.00;99.90;;;;;;4975382;28;20663;-75
2021/04/25 04:18:46;;;;;;;10.50;7.35;;;5.00;99.90;;;;;;4990149;28;20481;-75
2021/04/25 04:21:12;;;;;;;12.10;7.30;;;5.00;99.90;;;;;;5001942;28;20237;-76
2021/04/25 04:23:38;;;;;;;16.48;7.38;;;5.00;99.90;;;;;;4979393;28;20534;-76
2021/04/25 04:26:04;;;;;;;14.77;7.40;;;5.00;99.90;;;;;;4980886;28;20263;-75
2021/04/25 04:28:30;;;;;;;8.40;5.77;;;5.00;99.90;;;;;;4974074;28;20437;-75
2021/04/25 04:30:58;;;;;;;11.45;6.32;;;5.00;99.90;;;;;;4978011;28;20430;-75
2021/04/25 04:33:24;;;;;;;11.98;7.18;;;5.10;99.90;;;;;;4989489;28;20197;-75
2021/04/25 04:35:55;;;;;;;10.98;7.72;;;5.10;99.90;;;;;;4988832;28;20200;-75
2021/04/25 04:38:21;;;;;;;13.65;7.32;;;5.10;99.90;;;;;;4981629;28;20552;-75
2021/04/25 04:40:47;;;;;;;12.03;6.87;;;5.30;99.90;;;;;;4989171;28;20215;-75
2021/04/25 04:43:13;;;;;;;13.87;7.53;;;5.20;99.90;;;;;;4973772;28;21158;-75
2021/04/25 04:45:39;;;;;;;15.70;6.70;;;5.40;99.90;;;;;;4975898;28;20888;-76
2021/04/25 04:48:06;;;;;;;10.40;6.77;;;5.40;99.90;;;;;;4957897;28;20187;-75
2021/04/25 04:50:32;;;;;;;10.88;6.68;;;5.40;99.90;;;;;;4993035;28;20437;-76
2021/04/25 04:52:58;;;;;;;12.50;6.77;;;5.40;99.90;;;;;;5003725;28;20606;-75
2021/04/25 04:55:25;;;;;;;12.80;7.15;;;5.50;99.90;;;;;;4964779;28;20459;-75
2021/04/25 04:57:51;;;;;;;12.47;6.40;;;5.60;99.90;;;;;;4976255;28;20261;-76
2021/04/25 05:00:17;;;;;;;9.70;7.00;;;5.60;99.90;;;;;;4986571;28;21037;-75
2021/04/25 05:02:43;;;;;;;9.83;6.50;;;5.70;99.90;;;;;;4980209;28;20298;-75
2021/04/25 05:05:10;;;;;;;11.40;6.70;;;5.60;99.90;;;;;;4957124;28;20455;-74
2021/04/25 05:07:38;;;;;;;12.27;6.50;;;5.70;99.90;;;;;;4985428;28;20180;-76
2021/04/25 05:10:06;;;;;;;10.00;6.68;;;5.80;99.90;;;;;;4985240;28;20464;-75
2021/04/25 05:12:32;;;;;;;9.82;5.50;;;5.80;99.90;;;;;;4997785;28;20194;-76
2021/04/25 05:14:59;;;;;;;8.68;5.75;;;5.90;99.90;;;;;;4975170;28;20206;-76
2021/04/25 05:17:27;;;;;;;15.90;6.90;;;6.00;99.90;;;;;;4979895;28;20199;-75
2021/04/25 05:19:55;;;;;;;10.13;7.00;;;6.00;99.90;;;;;;4971725;28;20245;-75
2021/04/25 05:22:21;;;;;;;12.32;7.40;;;6.00;99.90;;;;;;4974448;28;20198;-76
2021/04/25 05:24:48;;;;;;;9.38;7.00;;;6.00;99.90;;;;;;4976912;28;20228;-76
2021/04/25 05:27:14;;;;;;;14.23;6.40;;;6.10;99.90;;;;;;4981553;28;20190;-76
2021/04/25 05:29:40;;;;;;;8.67;5.80;;;6.10;99.90;;;;;;4960100;28;20571;-76
2021/04/25 05:32:06;;;;;;;10.80;5.90;;;6.20;99.90;;;;;;4954890;28;20453;-76
2021/04/25 05:34:33;;;;;;;8.53;4.93;;;6.30;99.90;;;;;;4980010;28;20533;-76
2021/04/25 05:37:01;;;;;;;8.00;5.57;;;6.40;99.90;;;;;;4976899;28;20443;-76
2021/04/25 05:39:27;;;;;;;11.37;6.43;;;6.50;99.90;;;;;;4959771;28;20572;-76
2021/04/25 05:41:53;;;;;;;11.87;6.97;;;6.40;99.90;;;;;;4988325;28;20522;-75
2021/04/25 05:44:19;;;;;;;9.85;6.63;;;6.50;99.90;;;;;;4962932;28;20456;-76
2021/04/25 05:46:46;;;;;;;11.43;6.70;;;6.50;99.90;;;;;;4989596;28;20677;-75
2021/04/25 05:49:14;;;;;;;9.93;7.40;;;6.50;99.90;;;;;;4982552;28;20737;-75
2021/04/25 05:51:40;;;;;;;10.30;6.40;;;6.50;99.90;;;;;;4958642;28;20521;-76
2021/04/25 05:54:06;;;;;;;13.18;7.53;;;6.60;99.90;;;;;;4971216;28;20548;-76
2021/04/25 05:56:32;;;;;;;10.00;7.57;;;6.70;99.70;;;;;;4966968;28;20203;-75
2021/04/25 05:58:58;;;;;;;12.57;8.17;;;6.80;98.90;;;;;;4966918;28;20514;-75
2021/04/25 06:01:25;;;;;;;9.90;8.82;;;6.70;97.80;;;;;;4994834;28;20859;-76
2021/04/25 06:03:51;;;;;;;7.43;6.63;;;6.70;98.50;;;;;;4979814;28;20209;-76
2021/04/25 06:06:17;;;;;;;10.10;7.63;;;6.80;98.50;;;;;;5004853;28;20445;-75
2021/04/25 06:08:43;;;;;;;9.83;7.50;;;6.80;98.30;;;;;;4992978;28;20949;-75
2021/04/25 06:11:11;;;;;;;11.77;8.50;;;6.90;98.50;;;;;;4983767;28;20440;-75
2021/04/25 06:13:38;;;;;;;11.30;8.50;;;7.00;97.90;;;;;;4980911;28;20456;-76
2021/04/25 06:16:04;;;;;;;10.50;8.23;;;7.00;97.40;;;;;;4975099;28;20514;-75
2021/04/25 06:18:30;;;;;;;13.57;9.50;;;7.10;97.30;;;;;;4989902;28;20473;-76
2021/04/25 06:20:57;;;;;;;10.73;8.83;;;7.10;97.00;;;;;;4974769;28;20479;-76
2021/04/25 06:23:25;;;;;;;12.57;8.80;;;7.00;97.00;;;;;;4989452;28;20795;-75
2021/04/25 06:25:51;;;;;;;10.70;7.87;;;7.10;97.10;;;;;;4974788;28;20484;-76
2021/04/25 06:28:18;;;;;;;10.20;7.03;;;7.10;96.70;;;;;;4983473;28;20435;-76
2021/04/25 06:30:45;;;;;;;9.87;8.83;;;7.20;96.60;;;;;;4996124;28;20957;-74
2021/04/25 06:33:11;;;;;;;9.17;7.70;;;7.20;97.10;;;;;;5004846;28;20441;-76
2021/04/25 06:35:40;;;;;;;8.70;7.80;;;7.30;96.50;;;;;;4975921;28;20447;-75
2021/04/25 06:38:07;;;;;;;10.73;7.73;;;7.20;96.30;;;;;;4982709;28;20456;-76
2021/04/25 06:40:36;;;;;;;9.80;7.63;;;7.40;96.40;;;;;;4984995;28;20892;-76
2021/04/25 06:43:05;;;;;;;15.30;8.40;;;7.40;96.00;;;;;;4970391;28;20548;-76
2021/04/25 06:45:32;;;;;;;9.73;8.00;;;7.50;95.80;;;;;;4992376;28;21016;-75
2021/04/25 06:48:00;;;;;;;9.17;8.27;;;7.60;95.40;;;;;;4956634;28;20454;-76
2021/04/25 06:50:26;;;;;;;12.57;10.10;;;7.60;95.50;;;;;;4961140;28;20439;-76
2021/04/25 06:52:52;;;;;;;13.80;9.77;;;7.60;95.30;;;;;;5003501;28;20520;-76
2021/04/25 06:55:21;;;;;;;14.20;10.57;;;7.80;94.50;;;;;;4958794;28;20907;-76
2021/04/25 06:57:49;;;;;;;13.63;11.80;;;7.60;94.00;;;;;;4974638;28;20451;-75
2021/04/25 07:00:17;;;;;;;11.77;10.53;;;7.60;94.20;;;;;;4983211;28;20464;-76
2021/04/25 07:02:44;;;;;;;14.97;9.90;;;7.60;94.40;;;;;;4993342;28;20451;-76
2021/04/25 07:05:10;;;;;;;11.33;10.10;;;7.50;93.90;;;;;;4986004;28;20455;-76
2021/04/25 07:07:37;;;;;;;13.17;9.40;;;7.60;94.40;;;;;;4995870;28;20462;-76
2021/04/25 07:10:04;;;;;;;13.40;8.97;;;7.60;94.30;;;;;;4976514;28;20448;-76
2021/04/25 07:12:31;;;;;;;11.53;9.33;;;7.60;94.30;;;;;;4990040;28;20429;-77
2021/04/25 07:14:59;;;;;;;12.73;9.53;;;7.70;94.20;;;;;;4998963;28;20461;-77
2021/04/25 07:17:26;;;;;;;10.83;8.97;;;7.80;93.80;;;;;;4980075;28;20452;-77
2021/04/25 07:19:52;;;;;;;9.73;8.73;;;8.00;93.50;;;;;;4978525;28;20537;-74
2021/04/25 07:22:21;;;;;;;10.53;9.50;;;7.90;93.20;;;;;;4969486;28;20442;-74
2021/04/25 07:24:47;;;;;;;11.10;10.00;;;8.00;92.80;;;;;;4990227;28;20959;-76
2021/04/25 07:27:13;;;;;;;15.00;10.97;;;8.00;92.60;;;;;;4982948;28;20473;-76
2021/04/25 07:29:39;;;;;;;14.90;11.03;;;8.10;92.70;;;;;;4987388;28;20448;-77
2021/04/25 07:32:06;;;;;;;11.23;10.07;;;8.20;92.10;;;;;;4992619;28;20431;-76
2021/04/25 07:34:35;;;;;;;13.40;10.87;;;8.10;92.00;;;;;;4980516;28;20467;-75
2021/04/25 07:37:04;;;;;;;12.57;10.40;;;8.10;92.10;;;;;;4975035;28;20432;-76
2021/04/25 07:39:36;;;;;;;17.03;9.83;;;8.10;91.60;;;;;;4977432;28;20619;-76
2021/04/25 07:42:05;;;;;;;12.03;9.17;;;8.10;92.00;;;;;;4987433;28;20811;-75
2021/04/25 07:44:37;;;;;;;10.63;9.57;;;8.10;91.70;;;;;;4965321;28;20491;-75
2021/04/25 07:47:03;;;;;;;11.60;10.20;;;8.10;91.60;;;;;;4994742;28;20433;-73
2021/04/25 07:49:32;;;;;;;11.50;8.63;;;8.20;92.00;;;;;;4988877;28;20440;-73
2021/04/25 07:52:01;;;;;;;11.40;8.53;;;8.30;91.90;;;;;;4958793;28;20467;-73
2021/04/25 07:54:27;;;;;;;12.17;10.33;;;8.30;91.30;;;;;;4970674;28;20491;-73
2021/04/25 07:56:55;;;;;;;14.97;9.63;;;8.40;91.30;;;;;;4987999;28;20841;-73
2021/04/25 07:59:28;;;;;;;15.93;10.07;;;8.50;91.00;;;;;;4974374;28;20529;-73
2021/04/25 08:01:59;;;;;;;12.00;9.30;;;8.80;91.40;;;;;;4972901;28;20460;-73
2021/04/25 08:04:28;;;;;;;10.87;9.40;;;8.90;90.10;;;;;;4971303;28;20827;-74
2021/04/25 08:06:54;;;;;;;10.60;8.83;;;8.90;89.80;;;;;;4963950;28;20434;-74
2021/04/25 08:09:21;;;;;;;13.47;8.10;;;9.00;90.10;;;;;;4976115;28;20430;-74
2021/04/25 08:11:47;;;;;;;8.03;7.23;;;9.20;89.60;;;;;;4994354;28;20568;-74
2021/04/25 08:14:13;;;;;;;9.20;8.27;;;9.30;89.60;;;;;;5012523;23;20454;-71
2021/04/25 08:16:39;;;;;;;8.10;7.40;;;9.30;88.40;;;;;;4970487;28;20456;-70
2021/04/25 08:19:05;;;;;;;8.40;7.60;;;9.40;88.00;;;;;;4988268;28;20442;-70
2021/04/25 08:21:32;;;;;;;10.73;7.43;;;9.40;87.00;;;;;;4990817;28;20444;-70
2021/04/25 08:23:59;;;;;;;11.97;8.43;;;9.30;87.00;;;;;;4990708;28;20472;-71
2021/04/25 08:26:26;;;;;;;9.77;8.30;;;9.40;87.80;;;;;;4990733;28;20448;-71
2021/04/25 08:28:52;;;;;;;9.80;8.00;;;9.40;86.70;;;;;;4990431;28;21076;-71
2021/04/25 08:31:18;;;;;;;13.77;7.93;;;9.50;88.00;;;;;;4990407;28;20453;-71
2021/04/25 08:33:46;;;;;;;11.00;7.93;;;9.50;87.30;;;;;;4991503;28;21108;-71
2021/04/25 08:36:14;;;;;;;11.90;8.77;;;9.40;86.50;;;;;;4982503;28;20444;-71
2021/04/25 08:38:41;;;;;;;8.60;7.70;;;9.30;87.60;;;;;;4974947;28;20459;-70
2021/04/25 08:41:11;;;;;;;14.70;8.90;;;9.20;88.00;;;;;;4992259;28;20464;-70
2021/04/25 08:43:42;;;;;;;10.47;9.23;;;9.20;87.90;;;;;;4974373;28;20468;-70
2021/04/25 08:46:09;;;;;;;12.97;9.57;;;9.00;87.60;;;;;;4971902;28;20466;-70
2021/04/25 08:48:35;;;;;;;12.57;11.23;;;8.90;87.70;;;;;;4991382;28;20437;-70
2021/04/25 08:51:02;;;;;;;11.87;10.63;;;9.00;88.30;;;;;;4990163;28;20980;-70
2021/04/25 08:53:28;;;;;;;13.80;11.47;;;8.90;87.80;;;;;;4990103;28;20425;-70
2021/04/25 08:55:54;;;;;;;11.77;10.67;;;9.00;88.60;;;;;;4991597;28;20769;-71
2021/04/25 08:58:23;;;;;;;11.93;10.83;;;8.90;87.10;;;;;;4955312;28;20535;-71
2021/04/25 09:00:49;;;;;;;16.90;10.90;;;8.50;86.70;;;;;;4988100;28;20916;-71
2021/04/25 09:03:16;;;;;;;13.43;11.67;;;8.50;88.90;;;;;;4988159;28;20441;-71
2021/04/25 09:05:48;;;;;;;14.10;11.30;;;8.70;89.50;;;;;;4988253;28;20948;-71
2021/04/25 09:08:16;;;;;;;14.00;10.10;;;8.80;88.50;;;;;;4986500;28;20464;-71
2021/04/25 09:10:43;;;;;;;10.10;9.10;;;9.10;88.70;;;;;;4986874;28;20576;-71
2021/04/25 09:13:24;;;;;;;10.47;8.23;;;9.40;87.30;;;;;;4986973;28;20867;-71
2021/04/25 09:15:54;;;;;;;8.80;8.00;;;9.80;85.80;;;;;;4988739;28;20476;-71
2021/04/25 09:18:33;;;;;;;10.73;7.30;;;9.90;84.80;;;;;;4986493;28;20433;-71
2021/04/25 09:21:07;;;;;;;9.70;7.90;;;10.00;81.70;;;;;;4979241;28;20477;-72
2021/04/25 09:23:36;;;;;;;9.20;8.27;;;9.90;83.50;;;;;;4969583;28;20464;-71
2021/04/25 09:26:05;;;;;;;11.37;8.23;;;10.00;82.70;;;;;;4986331;28;20444;-72
2021/04/25 09:28:36;;;;;;;9.70;7.67;;;10.00;81.90;;;;;;4984447;28;20484;-72
2021/04/25 09:31:14;;;;;;;8.33;7.70;;;10.10;83.90;;;;;;4985502;28;20444;-71
2021/04/25 09:33:51;;;;;;;8.53;7.83;;;10.10;80.60;;;;;;4986296;28;20973;-71
2021/04/25 09:36:22;;;;;;;7.57;6.70;;;10.10;82.50;;;;;;4987052;28;20433;-72
2021/04/25 09:38:53;;;;;;;12.63;9.60;;;10.30;83.00;;;;;;4986142;28;20445;-71
2021/04/25 09:41:31;;;;;;;7.30;6.53;;;10.40;80.10;;;;;;4986478;28;20961;-71
2021/04/25 09:43:58;;;;;;;10.93;6.23;;;10.20;80.90;;;;;;4969872;28;20465;-71
2021/04/25 09:46:25;;;;;;;7.70;7.00;;;10.40;78.90;;;;;;4984629;28;20437;-71
2021/04/25 09:48:53;;;;;;;7.90;7.10;;;10.60;78.90;;;;;;4985953;28;20799;-71
2021/04/25 09:51:25;;;;;;;8.10;7.40;;;10.70;78.80;;;;;;4987439;28;20436;-72
2021/04/25 09:53:54;;;;;;;9.93;7.57;;;10.60;77.70;;;;;;4968813;28;20603;-72
2021/04/25 09:56:44;;;;;;;8.33;7.33;;;10.70;78.60;;;;;;4985088;28;20588;-71
2021/04/25 09:59:12;;;;;;;7.93;7.00;;;11.00;80.10;;;;;;4986114;28;20446;-72
2021/04/25 10:01:43;;;;;;;8.53;7.60;;;11.10;76.80;;;;;;4985922;28;20921;-71
2021/04/25 10:04:31;;;;;;;8.30;7.50;;;11.40;77.80;;;;;;4986385;28;20465;-71
2021/04/25 10:06:59;;;;;;;9.10;7.80;;;11.40;75.80;;;;;;4982875;28;20465;-71
2021/04/25 10:09:32;;;;;;;8.27;6.90;;;11.60;73.20;;;;;;4987667;28;20434;-71
2021/04/25 10:12:02;;;;;;;8.20;7.50;;;11.70;74.50;;;;;;4986171;28;20430;-72
2021/04/25 10:14:31;;;;;;;8.83;8.00;;;11.90;73.40;;;;;;4989220;28;20514;-72
2021/04/25 10:16:58;;;;;;;11.33;8.07;;;12.10;72.10;;;;;;4971962;28;20445;-72
2021/04/25 10:19:24;;;;;;;8.63;7.73;;;12.30;73.00;;;;;;4971722;28;20796;-71
2021/04/25 10:21:53;;;;;;;8.10;7.47;;;12.70;72.50;;;;;;4986890;28;20439;-72
2021/04/25 10:24:21;;;;;;;9.20;7.87;;;12.90;70.50;;;;;;4985889;28;20459;-72
2021/04/25 10:27:05;;;;;;;7.97;7.27;;;13.10;67.40;;;;;;4988638;28;20934;-72
2021/04/25 10:29:52;;;;;;;7.33;6.63;;;13.40;67.20;;;;;;4983622;28;20515;-72
2021/04/25 10:32:19;;;;;;;8.37;7.57;;;13.70;65.30;;;;;;4986030;28;20496;-72
2021/04/25 10:34:48;;;;;;;7.03;6.23;;;13.80;65.40;;;;;;4988203;28;20448;-72
2021/04/25 10:37:20;;;;;;;7.80;7.10;;;13.60;64.50;;;;;;4971593;28;20527;-72
2021/04/25 10:39:54;;;;;;;7.40;6.90;;;13.60;65.50;;;;;;4985957;28;20471;-71
2021/04/25 10:42:21;;;;;;;9.60;7.93;;;13.50;65.50;;;;;;4988166;28;20444;-71
2021/04/25 10:45:03;;;;;;;8.40;7.50;;;13.50;62.90;;;;;;4991103;28;20454;-71
2021/04/25 10:47:28;;;;;;;8.03;7.30;;;13.60;64.40;;;;;;4958611;28;20922;-71
2021/04/25 10:49:56;;;;;;;11.10;7.77;;;13.70;63.60;;;;;;4991033;28;20487;-71
2021/04/25 10:52:32;;;;;;;8.80;7.90;;;13.70;63.50;;;;;;4990804;28;20441;-71
2021/04/25 10:55:10;;;;;;;10.20;7.83;;;13.60;62.20;;;;;;4992153;28;20489;-71
2021/04/25 10:58:04;;;;;;;7.70;6.70;;;13.60;62.90;;;;;;4988428;28;20433;-71
2021/04/25 11:00:43;;;;;;;8.17;7.20;;;13.70;63.30;;;;;;4989148;28;20483;-71
2021/04/25 11:03:13;;;;;;;9.03;8.10;;;13.60;62.60;;;;;;4989465;28;20459;-71
2021/04/25 11:05:39;;;;;;;8.23;7.43;;;13.50;62.50;;;;;;4983238;28;20476;-71
2021/04/25 11:08:15;;;;;;;11.30;8.40;;;13.60;62.90;;;;;;4991182;28;20915;-71
2021/04/25 11:10:52;;;;;;;7.83;7.10;;;13.80;63.20;;;;;;4991124;28;20442;-72
2021/04/25 11:13:37;;;;;;;7.63;6.97;;;13.90;62.50;;;;;;4988914;28;20446;-72
2021/04/25 11:16:21;;;;;;;7.17;6.63;;;14.10;62.10;;;;;;4992017;28;20471;-71
2021/04/25 11:18:52;;;;;;;8.10;7.40;;;14.50;63.50;;;;;;4989451;28;20454;-71
2021/04/25 11:21:39;;;;;;;8.23;7.53;;;14.70;58.60;;;;;;4991805;28;20477;-70
2021/04/25 11:24:08;;;;;;;9.10;8.27;;;14.50;58.50;;;;;;4991978;28;20457;-70
2021/04/25 11:26:43;;;;;;;9.03;8.23;;;14.10;58.80;;;;;;4991042;28;20485;-70
2021/04/25 11:29:27;;;;;;;9.03;8.30;;;14.10;59.90;;;;;;4990155;28;20456;-71
2021/04/25 11:31:56;;;;;;;10.50;8.10;;;14.10;58.90;;;;;;4990496;28;20453;-71
2021/04/25 11:34:29;;;;;;;8.70;8.00;;;14.20;59.90;;;;;;4990919;28;20454;-71
2021/04/25 11:37:05;;;;;;;11.00;8.00;;;14.30;60.00;;;;;;4990073;28;20497;-72
2021/04/25 11:39:34;;;;;;;10.43;7.50;;;14.50;59.20;;;;;;4969183;28;20489;-71
2021/04/25 11:42:02;;;;;;;7.67;6.97;;;14.50;57.30;;;;;;4991154;28;20808;-71
2021/04/25 11:44:39;;;;;;;9.53;7.40;;;14.50;58.00;;;;;;4988656;28;20481;-71
2021/04/25 11:47:14;;;;;;;7.80;7.20;;;14.50;58.00;;;;;;4991393;28;20451;-71
2021/04/25 11:49:47;;;;;;;6.50;5.90;;;14.40;57.30;;;;;;4989877;28;20458;-71
2021/04/25 11:52:25;;;;;;;7.47;6.23;;;14.70;57.80;;;;;;4989426;28;20435;-71
2021/04/25 11:55:08;;;;;;;6.77;6.17;;;15.00;56.40;;;;;;4987199;28;21048;-71
2021/04/25 11:57:37;;;;;;;7.00;6.17;;;15.30;56.90;;;;;;4958392;28;20435;-71
2021/04/25 12:00:20;;;;;;;7.60;6.90;;;15.50;57.00;;;;;;4987774;28;20480;-71
2021/04/25 12:02:47;;;;;;;10.63;7.13;;;15.60;55.10;;;;;;4991227;28;20428;-71
2021/04/25 12:05:22;;;;;;;6.90;6.27;;;15.80;54.80;;;;;;4989955;28;20465;-71
2021/04/25 12:08:10;;;;;;;7.53;6.80;;;15.30;54.40;;;;;;4990012;28;20993;-71
2021/04/25 12:10:39;;;;;;;8.30;6.30;;;15.40;56.70;;;;;;4984346;28;20425;-71
2021/04/25 12:13:15;;;;;;;8.10;7.30;;;15.40;54.80;;;;;;4989675;28;20797;-71
2021/04/25 12:15:48;;;;;;;7.40;6.70;;;15.40;55.90;;;;;;4989734;28;20573;-71
2021/04/25 12:18:19;;;;;;;8.60;7.43;;;15.80;55.20;;;;;;4973590;28;20452;-71
2021/04/25 12:20:47;;;;;;;6.57;5.87;;;15.90;53.90;;;;;;4973640;28;20482;-71
2021/04/25 12:23:16;;;;;;;7.40;6.00;;;16.00;53.70;;;;;;4989630;28;20791;-71
2021/04/25 12:25:43;;;;;;;7.10;6.40;;;16.00;54.30;;;;;;4990032;28;20433;-71
2021/04/25 12:28:12;;;;;;;7.40;6.80;;;16.20;54.40;;;;;;4982760;28;20427;-71
2021/04/25 12:30:43;;;;;;;6.60;6.00;;;16.20;53.00;;;;;;4988191;28;20421;-71
2021/04/25 12:33:20;;;;;;;7.37;6.60;;;16.30;53.30;;;;;;4971993;28;20444;-71
2021/04/25 12:35:49;;;;;;;7.70;7.03;;;16.30;52.10;;;;;;4956652;28;21098;-71
2021/04/25 12:38:21;;;;;;;7.50;6.80;;;16.30;52.70;;;;;;4973265;28;20532;-71
2021/04/25 12:40:59;;;;;;;8.43;7.13;;;16.40;53.80;;;;;;4989639;28;20842;-71
2021/04/25 12:43:29;;;;;;;7.00;5.97;;;16.30;52.80;;;;;;4988890;28;20540;-71
2021/04/25 12:46:11;;;;;;;8.07;6.63;;;16.20;52.10;;;;;;4989037;28;20439;-71
2021/04/25 12:48:40;;;;;;;7.30;6.17;;;15.80;53.80;;;;;;4991243;28;20541;-71
2021/04/25 12:51:12;;;;;;;7.20;6.50;;;15.90;54.40;;;;;;4973227;28;20441;-71
2021/04/25 12:53:59;;;;;;;7.97;7.13;;;15.80;53.30;;;;;;4955369;28;20538;-71
2021/04/25 12:56:36;;;;;;;9.30;6.87;;;16.00;53.60;;;;;;4972111;28;20528;-71